Time;durP1;ratioP1;P1;durP2;ratioP2;P2;SDS_P1;SDS_P2;PMS_P1;PMS_P2;Temp;Humidity;BMP_temperature;BMP_pressure;BME280_temperature;BME280_humidity;BME280_pressure;Samples;Min_cycle;Max_cycle;Signal;HPM_P1;HPM_P2
2022/11/09 00:01:59;;;;;;;54.97;49.10;;;;;;;4.25;100.00;101832.38;6186326;23;20032;-93
2022/11/09 00:04:39;;;;;;;56.92;50.17;;;;;;;4.29;100.00;101849.53;6185962;23;20036;-93
2022/11/09 00:07:12;;;;;;;55.70;49.67;;;;;;;4.20;100.00;101845.09;6186309;23;20405;-91
2022/11/09 00:09:43;;;;;;;57.17;51.05;;;;;;;4.21;100.00;101838.88;6186217;23;20378;-94
2022/11/09 00:12:27;;;;;;;52.50;46.85;;;;;;;4.33;100.00;101842.22;6186305;23;20021;-91
2022/11/09 00:14:56;;;;;;;56.72;47.88;;;;;;;3.99;100.00;101836.47;6184936;23;20039;-92
2022/11/09 00:20:38;;;;;;;58.40;51.70;;;;;;;4.33;100.00;101840.41;6181902;23;20113;-91
2022/11/09 00:23:06;;;;;;;61.10;54.70;;;;;;;4.15;100.00;101844.69;6178297;23;20028;-92
2022/11/09 00:25:38;;;;;;;58.95;52.85;;;;;;;4.29;100.00;101838.19;6185740;23;20382;-92
2022/11/09 00:28:08;;;;;;;55.63;49.55;;;;;;;4.30;100.00;101842.50;6184978;23;20048;-91
2022/11/09 00:31:13;;;;;;;57.92;48.58;;;;;;;4.14;100.00;101848.25;6184712;23;20056;-92
2022/11/09 00:33:49;;;;;;;56.60;48.53;;;;;;;4.26;100.00;101839.28;6186100;23;20017;-91
2022/11/09 00:36:25;;;;;;;54.60;48.38;;;;;;;3.99;100.00;101839.94;6185778;23;20076;-88
2022/11/09 00:39:26;;;;;;;62.58;52.13;;;;;;;4.25;100.00;101835.00;6185495;23;20021;-89
2022/11/09 00:42:06;;;;;;;56.30;50.30;;;;;;;4.19;100.00;101829.47;6186251;23;20031;-94
2022/11/09 00:44:41;;;;;;;56.85;50.75;;;;;;;4.20;100.00;101836.38;6186323;23;20025;-91
2022/11/09 00:47:15;;;;;;;55.22;49.30;;;;;;;4.32;100.00;101833.47;6214880;23;20529;-91
2022/11/09 00:49:47;;;;;;;55.60;47.65;;;;;;;3.69;100.00;101835.56;6215730;23;20035;-90
2022/11/09 00:52:52;;;;;;;61.03;50.80;;;;;;;4.15;100.00;101834.16;6216334;23;20430;-90
2022/11/09 00:55:23;;;;;;;57.40;51.33;;;;;;;4.36;100.00;101819.09;6196916;23;20020;-89
2022/11/09 01:03:57;;;;;;;54.58;48.58;;;;;;;3.77;100.00;101829.66;6215211;23;20455;-92
2022/11/09 01:06:32;;;;;;;52.03;46.42;;;;;;;3.94;100.00;101823.75;6209951;23;20012;-90
2022/11/09 01:19:56;;;;;;;59.78;53.30;;;;;;;3.92;100.00;101817.78;6169133;23;20408;-89
2022/11/09 01:22:30;;;;;;;54.65;48.53;;;;;;;3.83;100.00;101822.06;6215907;23;20094;-89
2022/11/09 01:25:16;;;;;;;63.55;48.85;;;;;;;3.54;100.00;101814.09;6216300;23;20021;-91
2022/11/09 01:28:01;;;;;;;62.03;49.47;;;;;;;3.49;100.00;101821.53;6215489;23;20087;-90
2022/11/09 01:30:41;;;;;;;61.00;51.75;;;;;;;3.67;100.00;101816.50;6214863;23;20029;-90
2022/11/09 01:33:21;;;;;;;55.20;47.03;;;;;;;3.67;100.00;101813.88;6216548;23;20326;-91
2022/11/09 01:35:54;;;;;;;55.25;45.17;;;;;;;3.37;100.00;101817.34;6215645;23;20094;-91
2022/11/09 01:38:24;;;;;;;54.13;47.85;;;;;;;3.54;100.00;101808.84;6215252;23;20020;-90
2022/11/09 01:40:56;;;;;;;65.93;50.08;;;;;;;3.33;100.00;101800.19;6215772;23;20078;-90
2022/11/09 01:43:24;;;;;;;60.75;50.75;;;;;;;3.50;100.00;101810.06;6215959;23;20017;-90
2022/11/09 01:46:05;;;;;;;82.25;61.45;;;;;;;3.52;100.00;101808.16;6214798;23;20020;-92
2022/11/09 01:49:40;;;;;;;;;;;;;;;;;;;;;
2022/11/09 01:52:18;;;;;;;81.18;61.33;;;;;;;3.64;100.00;101814.13;6161754;23;20391;-92
2022/11/09 01:54:50;;;;;;;89.68;66.63;;;;;;;3.59;100.00;101808.44;6216107;23;20043;-89
2022/11/09 01:57:37;;;;;;;87.13;58.97;;;;;;;3.72;100.00;101816.91;6216031;23;20024;-89
2022/11/09 02:00:11;;;;;;;76.55;56.63;;;;;;;3.76;100.00;101813.06;6205139;23;20031;-90
2022/11/09 02:02:47;;;;;;;76.95;58.22;;;;;;;3.70;100.00;101823.28;6215702;23;20043;-90
2022/11/09 02:05:20;;;;;;;72.85;57.72;;;;;;;3.67;100.00;101824.38;6215525;23;20048;-89
2022/11/09 02:08:02;;;;;;;;;;;;;;;;;;;;;
2022/11/09 02:10:52;;;;;;;62.55;54.70;;;;;;;3.27;100.00;101814.69;6214842;23;20391;-90
2022/11/09 02:13:27;;;;;;;61.45;50.42;;;;;;;3.00;100.00;101815.25;6215716;23;20441;-90
2022/11/09 02:16:08;;;;;;;66.22;52.53;;;;;;;3.39;100.00;101820.69;6202095;23;20024;-89
2022/11/09 02:18:49;;;;;;;60.75;51.30;;;;;;;3.57;100.00;101816.47;6213480;23;20052;-89
2022/11/09 02:21:20;;;;;;;62.05;50.13;;;;;;;3.53;100.00;101814.22;6215545;23;20021;-90
2022/11/09 02:24:09;;;;;;;56.25;47.60;;;;;;;3.40;100.00;101817.91;6215536;23;20445;-90
2022/11/09 02:26:46;;;;;;;59.08;49.67;;;;;;;3.41;100.00;101818.75;6215552;23;20017;-91
2022/11/09 02:29:17;;;;;;;56.65;50.38;;;;;;;3.14;100.00;101820.13;6215615;23;20056;-90
2022/11/09 02:31:51;;;;;;;55.63;49.73;;;;;;;3.39;100.00;101821.50;6215471;23;20099;-90
2022/11/09 02:34:24;;;;;;;54.15;48.45;;;;;;;3.40;100.00;101822.34;6215181;23;20036;-90
2022/11/09 02:37:02;;;;;;;57.17;51.17;;;;;;;3.49;100.00;101825.97;6215737;23;20020;-89
2022/11/09 02:39:35;;;;;;;53.80;48.38;;;;;;;3.47;100.00;101820.84;6215865;23;20032;-90
2022/11/09 02:42:17;;;;;;;55.05;48.97;;;;;;;3.48;100.00;101826.91;6214703;23;20050;-89
2022/11/09 02:44:48;;;;;;;56.42;49.88;;;;;;;3.34;100.00;101821.06;6215451;23;20036;-89
2022/11/09 02:47:35;;;;;;;59.45;52.92;;;;;;;3.47;100.00;101818.22;6214685;23;20086;-90
2022/11/09 02:50:20;;;;;;;57.33;51.58;;;;;;;3.48;100.00;101817.25;6214922;23;20020;-90
2022/11/09 02:52:54;;;;;;;52.47;47.08;;;;;;;3.35;100.00;101817.47;6215052;23;20021;-90
2022/11/09 02:55:21;;;;;;;58.58;52.17;;;;;;;3.33;100.00;101829.06;6215599;23;20028;-90
2022/11/09 02:57:50;;;;;;;53.05;46.85;;;;;;;2.90;100.00;101832.69;6215076;23;20016;-90
2022/11/09 03:08:01;;;;;;;55.97;49.88;;;;;;;3.32;100.00;101824.78;6044441;23;20030;-92
2022/11/09 03:10:45;;;;;;;54.35;48.50;;;;;;;3.21;100.00;101831.78;5944058;23;20019;-93
2022/11/09 03:13:22;;;;;;;57.30;51.05;;;;;;;3.30;100.00;101835.44;6206881;23;20024;-93
2022/11/09 03:16:12;;;;;;;54.92;46.97;;;;;;;3.30;100.00;101830.19;6214602;23;20036;-92
2022/11/09 03:18:43;;;;;;;56.20;49.47;;;;;;;3.24;100.00;101840.34;6214792;23;20027;-92
2022/11/09 03:21:13;;;;;;;62.53;52.70;;;;;;;2.90;100.00;101841.41;6215028;23;20028;-92
2022/11/09 03:24:38;;;;;;;57.30;51.30;;;;;;;3.03;100.00;101833.34;6215243;23;20433;-92
2022/11/09 03:27:09;;;;;;;63.08;52.15;;;;;;;2.98;100.00;101840.78;6036393;23;20019;-91
2022/11/09 03:29:43;;;;;;;58.72;52.13;;;;;;;2.92;100.00;101830.78;6094960;23;20018;-90
2022/11/09 03:35:50;;;;;;;59.35;52.85;;;;;;;2.92;100.00;101834.25;6028205;23;20030;-93
2022/11/09 03:41:36;;;;;;;54.75;48.90;;;;;;;2.48;100.00;101830.91;6207088;23;20047;-90
2022/11/09 03:44:25;;;;;;;64.80;50.90;;;;;;;2.84;100.00;101841.91;6216691;23;20067;-91
2022/11/09 03:47:02;;;;;;;54.50;48.60;;;;;;;2.85;100.00;101835.72;6217006;23;20456;-92
2022/11/09 03:49:38;;;;;;;54.90;49.25;;;;;;;2.85;100.00;101838.34;6216660;23;20072;-90
2022/11/09 03:52:37;;;;;;;52.53;46.38;;;;;;;2.85;100.00;101829.66;6216818;23;20100;-91
2022/11/09 03:58:54;;;;;;;57.15;50.95;;;;;;;2.80;100.00;101832.66;6216763;23;20027;-93
2022/11/09 04:05:15;;;;;;;55.60;48.67;;;;;;;2.58;100.00;101856.38;6216291;23;20038;-92
2022/11/09 04:08:36;;;;;;;53.95;48.03;;;;;;;2.43;100.00;101854.03;6216434;23;20031;-93
2022/11/09 04:11:38;;;;;;;56.92;44.65;;;;;;;1.93;100.00;101850.25;6207102;23;20021;-93
2022/11/09 04:18:08;;;;;;;56.85;50.97;;;;;;;2.65;100.00;101852.28;6211863;23;20071;-92
2022/11/09 04:21:24;;;;;;;60.78;52.13;;;;;;;2.60;100.00;101855.28;6211437;23;20426;-93
2022/11/09 04:34:25;;;;;;;61.67;50.83;;;;;;;2.49;100.00;101868.44;5970191;23;20021;-89
2022/11/09 04:36:52;;;;;;;55.35;49.45;;;;;;;2.33;100.00;101868.88;6193836;23;20012;-91
2022/11/09 04:39:19;;;;;;;59.30;52.45;;;;;;;2.43;100.00;101877.66;6216223;23;20039;-91
2022/11/09 04:41:45;;;;;;;60.15;53.55;;;;;;;1.93;100.00;101863.34;6216046;23;20020;-91
2022/11/09 04:44:15;;;;;;;65.25;54.58;;;;;;;1.62;100.00;101868.38;6216661;23;20024;-91
2022/11/09 04:46:42;;;;;;;77.18;61.05;;;;;;;2.10;100.00;101869.88;6216374;23;20024;-90
2022/11/09 04:49:12;;;;;;;70.30;62.70;;;;;;;2.16;100.00;101867.59;6216636;23;20086;-92
2022/11/09 04:51:42;;;;;;;69.68;62.22;;;;;;;2.03;100.00;101865.13;6216322;23;20027;-92
2022/11/09 04:54:09;;;;;;;67.28;57.08;;;;;;;1.70;100.00;101862.53;6216285;23;20032;-91
2022/11/09 04:56:36;;;;;;;65.22;56.80;;;;;;;1.90;100.00;101863.59;6216603;23;20020;-90
2022/11/09 04:59:03;;;;;;;67.45;60.10;;;;;;;2.17;100.00;101864.00;6216196;23;20021;-90
2022/11/09 05:01:30;;;;;;;79.47;71.18;;;;;;;2.29;100.00;101873.50;6215876;23;20108;-92
2022/11/09 05:03:57;;;;;;;83.63;68.50;;;;;;;2.05;100.00;101872.84;6216116;23;20035;-89
2022/11/09 05:06:34;;;;;;;80.82;72.90;;;;;;;2.00;100.00;101869.78;6216540;23;20043;-91
2022/11/09 05:16:53;;;;;;;59.22;53.03;;;;;;;1.90;100.00;101890.59;6008822;23;20080;-90
2022/11/09 05:20:42;;;;;;;59.25;50.72;;;;;;;2.43;100.00;101901.25;6009817;23;20020;-89
2022/11/09 05:26:22;;;;;;;59.75;53.55;;;;;;;2.56;100.00;101903.69;6163000;23;20039;-92
2022/11/09 05:38:44;;;;;;;57.28;50.40;;;;;;;2.95;100.00;101902.22;6207231;23;20017;-90
2022/11/09 05:45:10;;;;;;;57.15;51.00;;;;;;;3.30;100.00;101903.72;6081273;23;20049;-90
2022/11/09 05:51:23;;;;;;;59.65;51.00;;;;;;;3.78;100.00;101908.38;6090182;23;20022;-93
2022/11/09 05:54:34;;;;;;;58.15;52.28;;;;;;;4.24;100.00;101909.63;6083046;23;20023;-90
2022/11/09 06:00:29;;;;;;;56.70;50.85;;;;;;;5.05;100.00;101909.34;6090363;23;20048;-91
2022/11/09 06:03:08;;;;;;;53.05;47.40;;;;;;;4.87;100.00;101918.94;6095529;23;20031;-91
2022/11/09 06:09:12;;;;;;;;;;;;;;;;;;;;;
2022/11/09 06:12:38;;;;;;;;;;;;;;;;;;;;;
2022/11/09 06:15:24;;;;;;;60.63;54.63;;;;;;;5.26;100.00;101925.00;6124477;23;20100;-89
2022/11/09 06:55:53;;;;;;;54.83;50.22;;;;;;;9.72;100.00;101929.94;6212764;23;20052;-92
2022/11/09 06:58:20;;;;;;;56.08;51.25;;;;;;;9.54;100.00;101918.72;6214992;23;20324;-90
2022/11/09 07:00:48;;;;;;;53.72;48.08;;;;;;;10.17;100.00;101933.75;6215017;23;20013;-93
2022/11/09 07:03:18;;;;;;;55.63;49.80;;;;;;;10.29;100.00;101921.75;6215185;23;20020;-92
2022/11/09 07:05:48;;;;;;;53.92;49.25;;;;;;;10.42;100.00;101926.50;6215784;23;20096;-90
2022/11/09 07:25:18;;;;;;;55.22;49.97;;;;;;;12.36;100.00;101899.09;5993571;23;20038;-89
2022/11/09 07:41:45;;;;;;;55.15;49.92;;;;;;;13.98;100.00;101907.09;5953592;24;20159;-89
2022/11/09 07:44:18;;;;;;;53.50;49.20;;;;;;;14.61;100.00;101907.72;6040083;23;20073;-93
2022/11/09 07:46:49;;;;;;;53.72;49.42;;;;;;;15.37;100.00;101908.28;6096932;23;20444;-90
2022/11/09 07:49:20;;;;;;;53.58;48.97;;;;;;;15.03;100.00;101912.84;6097328;23;20041;-92
2022/11/09 07:52:18;;;;;;;54.08;49.67;;;;;;;15.06;100.00;101905.22;6096144;23;20030;-90
2022/11/09 07:54:45;;;;;;;53.67;49.17;;;;;;;14.82;100.00;101903.19;6097234;23;20444;-91
2022/11/09 07:57:34;;;;;;;54.53;50.38;;;;;;;14.75;100.00;101907.72;6097437;23;20033;-91
2022/11/09 08:03:53;;;;;;;55.22;50.75;;;;;;;16.34;100.00;101899.31;5992862;23;20038;-93
2022/11/09 08:07:02;;;;;;;54.30;49.53;;;;;;;16.63;100.00;101895.19;6126945;23;20014;-90
2022/11/09 08:09:35;;;;;;;55.30;50.70;;;;;;;16.98;100.00;101894.75;6126116;23;20026;-92
2022/11/09 08:12:02;;;;;;;54.65;50.45;;;;;;;16.02;100.00;101906.47;6126981;23;20093;-93
2022/11/09 08:14:34;;;;;;;54.65;50.40;;;;;;;16.27;100.00;101902.00;6141409;23;20020;-89
2022/11/09 08:17:03;;;;;;;54.47;49.65;;;;;;;17.34;100.00;101899.34;6217253;23;20016;-93
2022/11/09 08:19:31;;;;;;;57.78;51.80;;;;;;;17.66;100.00;101888.47;6217593;23;20013;-92
2022/11/09 08:22:28;;;;;;;55.80;50.75;;;;;;;17.78;100.00;101892.06;6217690;23;20027;-91
2022/11/09 08:25:35;;;;;;;55.42;50.72;;;;;;;17.35;100.00;101887.56;6208805;23;20020;-89
2022/11/09 08:28:03;;;;;;;58.35;53.45;;;;;;;18.08;100.00;101891.28;6217746;23;20099;-93
2022/11/09 08:30:52;;;;;;;55.63;50.60;;;;;;;19.11;100.00;101892.81;6217537;23;20052;-91
2022/11/09 08:33:19;;;;;;;55.50;50.85;;;;;;;19.67;100.00;101893.25;6217662;23;20099;-91
2022/11/09 08:35:48;;;;;;;54.65;49.85;;;;;;;19.34;100.00;101889.28;6217167;23;20020;-89
2022/11/09 08:38:21;;;;;;;56.22;51.38;;;;;;;18.84;100.00;101897.00;6217322;23;20025;-94
2022/11/09 08:40:59;;;;;;;55.03;50.33;;;;;;;18.88;100.00;101890.09;6217377;23;20024;-88
2022/11/09 08:43:26;;;;;;;57.35;52.10;;;;;;;19.77;100.00;101890.75;6217150;23;20021;-87
2022/11/09 08:45:53;;;;;;;57.60;52.50;;;;;;;20.23;100.00;101886.25;6217634;23;20341;-89
2022/11/09 08:48:20;;;;;;;58.30;53.38;;;;;;;21.26;91.86;101894.94;6217153;23;20021;-90
2022/11/09 08:50:58;;;;;;;57.78;52.45;;;;;;;20.00;98.96;101886.34;6217045;23;20398;-90
2022/11/09 08:53:27;;;;;;;59.78;54.45;;;;;;;19.89;100.00;101883.44;6217050;23;20227;-89
2022/11/09 08:55:54;;;;;;;59.63;53.78;;;;;;;20.67;97.25;101872.19;6217289;23;20016;-88
2022/11/09 08:58:21;;;;;;;60.40;54.75;;;;;;;18.23;100.00;101875.56;6216467;23;20021;-89
2022/11/09 09:00:55;;;;;;;61.10;55.67;;;;;;;17.32;100.00;101882.63;6216719;23;20024;-91
2022/11/09 09:03:22;;;;;;;66.30;59.17;;;;;;;17.28;100.00;101877.94;6217267;23;20025;-91
2022/11/09 09:06:07;;;;;;;64.80;58.38;;;;;;;17.88;100.00;101863.84;6217122;23;20036;-89
2022/11/09 09:08:34;;;;;;;61.30;55.17;;;;;;;20.27;100.00;101873.09;6217029;23;20025;-88
2022/11/09 09:11:57;;;;;;;67.40;60.33;;;;;;;19.95;100.00;101868.19;6217024;23;20086;-89
2022/11/09 09:14:25;;;;;;;64.22;58.17;;;;;;;21.56;97.51;101865.91;6199917;23;20030;-92
2022/11/09 09:20:25;;;;;;;66.32;59.38;;;;;;;21.93;98.43;101847.94;6189929;23;20036;-90
2022/11/09 09:29:56;;;;;;;69.40;61.83;;;;;;;19.77;100.00;101863.81;6211632;23;20404;-88
2022/11/09 09:32:35;;;;;;;74.25;66.40;;;;;;;20.32;100.00;101854.28;6211015;23;20075;-90
2022/11/09 09:35:02;;;;;;;78.30;68.28;;;;;;;19.46;100.00;101846.19;6216034;23;20028;-91
2022/11/09 09:37:40;;;;;;;85.40;71.03;;;;;;;20.14;100.00;101858.03;6216070;23;20032;-90
2022/11/09 09:40:21;;;;;;;74.22;64.95;;;;;;;18.91;100.00;101852.78;6216549;23;20028;-88
2022/11/09 09:46:17;;;;;;;69.45;62.35;;;;;;;19.53;100.00;101846.03;6214019;23;20016;-90
2022/11/09 09:49:41;;;;;;;71.22;63.55;;;;;;;20.07;100.00;101842.00;6191821;23;20028;-91
2022/11/09 09:52:23;;;;;;;77.88;63.25;;;;;;;19.35;100.00;101842.44;6123765;23;20320;-89
2022/11/09 09:55:01;;;;;;;70.95;60.90;;;;;;;20.20;100.00;101840.88;6125353;23;20503;-91
2022/11/09 09:57:30;;;;;;;69.30;61.13;;;;;;;22.32;86.59;101845.09;6125058;23;20102;-89
2022/11/09 10:00:02;;;;;;;63.92;58.03;;;;;;;21.77;84.39;101837.22;6125765;23;20097;-87
2022/11/09 10:03:41;;;;;;;67.78;61.22;;;;;;;22.76;73.91;101834.09;6125028;23;20034;-89
2022/11/09 10:06:30;;;;;;;64.13;58.60;;;;;;;21.73;80.01;101836.91;6042102;23;20095;-90
2022/11/09 10:09:04;;;;;;;66.68;60.97;;;;;;;22.27;78.77;101831.53;6127398;23;20026;-91
2022/11/09 10:11:47;;;;;;;64.60;58.38;;;;;;;22.58;77.68;101820.97;6216365;23;20020;-89
2022/11/09 10:15:02;;;;;;;64.13;58.22;;;;;;;23.05;71.28;101821.00;6216058;23;20468;-89
2022/11/09 10:17:41;;;;;;;64.97;59.22;;;;;;;22.83;68.56;101820.31;6215976;23;20451;-91
2022/11/09 10:20:24;;;;;;;64.25;58.47;;;;;;;22.90;70.07;101820.88;6216551;23;20024;-90
2022/11/09 10:23:04;;;;;;;68.47;61.85;;;;;;;23.02;70.08;101815.28;6216158;23;20048;-92
2022/11/09 10:25:39;;;;;;;63.58;57.92;;;;;;;23.64;65.39;101813.66;6216587;23;20096;-91
2022/11/09 10:28:11;;;;;;;62.65;56.97;;;;;;;23.96;63.92;101811.59;6215849;23;20028;-88
2022/11/09 10:30:38;;;;;;;;;;;;;;;23.99;59.10;101808.34;6217359;23;20365;-91
2022/11/09 10:33:20;;;;;;;67.88;61.90;;;;;;;23.16;63.19;101807.50;6216818;23;19916;-91
2022/11/09 10:35:57;;;;;;;65.75;60.03;;;;;;;22.90;62.62;101811.94;6216692;23;20036;-91
2022/11/09 10:38:45;;;;;;;64.13;58.22;;;;;;;22.54;67.69;101812.53;6216701;23;20083;-91
2022/11/09 10:44:34;;;;;;;64.00;58.35;;;;;;;23.11;69.38;101810.19;6212878;23;20071;-87
2022/11/09 10:47:25;;;;;;;63.85;57.83;;;;;;;23.71;63.72;101804.19;6218245;23;20365;-89
2022/11/09 10:50:21;;;;;;;64.53;58.35;;;;;;;21.84;78.57;101808.91;6217616;23;20021;-91
2022/11/09 10:53:49;;;;;;;65.95;59.70;;;;;;;22.30;75.31;101795.00;6218381;23;20401;-89
2022/11/09 10:56:35;;;;;;;64.72;58.75;;;;;;;23.23;72.11;101789.09;6207320;23;20025;-91
2022/11/09 10:59:26;;;;;;;62.58;56.92;;;;;;;23.40;63.12;101791.63;6216986;23;20033;-92
2022/11/09 11:01:59;;;;;;;62.45;56.88;;;;;;;23.14;63.09;101788.78;6217723;23;20334;-89
2022/11/09 11:04:55;;;;;;;64.22;58.30;;;;;;;23.43;61.34;101796.50;6218839;23;20031;-91
2022/11/09 11:07:30;;;;;;;63.45;57.90;;;;;;;22.42;79.39;101784.81;6217996;23;20016;-88
2022/11/09 11:10:29;;;;;;;62.78;57.22;;;;;;;22.86;68.51;101781.88;6217757;23;20021;-91
2022/11/09 11:13:40;;;;;;;;;;;;;;;;;;;;;
2022/11/09 11:16:56;;;;;;;63.72;58.40;;;;;;;24.03;54.79;101761.66;6217766;23;20438;-88
2022/11/09 11:20:14;;;;;;;63.17;57.90;;;;;;;24.43;58.26;101764.38;6218535;23;20016;-87
2022/11/09 11:26:32;;;;;;;65.95;60.17;;;;;;;23.65;59.14;101759.13;5983534;24;20036;-88
2022/11/09 11:29:11;;;;;;;64.55;59.08;;;;;;;24.37;57.77;101761.91;6095140;23;20038;-91
2022/11/09 11:32:04;;;;;;;64.55;59.08;;;;;;;24.54;54.13;101750.78;6115658;23;20095;-88
